createdAt,value
2019-01-21T00:02:17.339Z,39.00
2019-01-21T00:04:47.451Z,37.20
2019-01-21T00:07:17.551Z,35.70
2019-01-21T00:09:47.674Z,37.97
2019-01-21T00:12:17.762Z,38.67
2019-01-21T00:14:47.905Z,40.77
2019-01-21T00:17:22.296Z,44.73
2019-01-21T00:19:49.838Z,38.33
2019-01-21T00:22:39.038Z,42.00
2019-01-21T00:25:09.577Z,40.90
2019-01-21T00:27:39.674Z,36.10
2019-01-21T00:30:10.147Z,39.67
2019-01-21T00:32:40.255Z,40.80
2019-01-21T00:35:10.487Z,34.30
2019-01-21T00:37:40.707Z,36.40
2019-01-21T00:40:11.530Z,35.33
2019-01-21T00:42:41.675Z,31.40
2019-01-21T00:45:11.867Z,33.07
2019-01-21T00:47:41.994Z,37.53
2019-01-21T00:50:12.424Z,35.00
2019-01-21T00:52:42.562Z,39.40
2019-01-21T00:55:13.265Z,35.87
2019-01-21T00:57:43.422Z,37.93
2019-01-21T01:00:19.492Z,34.73
2019-01-21T01:02:49.693Z,32.40
2019-01-21T01:05:20.530Z,37.93
2019-01-21T01:07:50.690Z,34.83
2019-01-21T01:10:20.802Z,31.20
2019-01-21T01:12:50.950Z,36.03
2019-01-21T01:15:21.053Z,39.80
2019-01-21T01:17:51.166Z,34.30
2019-01-21T01:20:21.906Z,30.00
2019-01-21T01:22:52.054Z,33.60
2019-01-21T01:25:22.208Z,39.07
2019-01-21T01:27:52.334Z,34.20
2019-01-21T01:30:22.452Z,37.03
2019-01-21T01:32:52.571Z,34.13
2019-01-21T01:35:22.666Z,36.43
2019-01-21T01:37:52.778Z,45.77
2019-01-21T01:40:23.142Z,38.13
2019-01-21T01:42:53.256Z,39.13
2019-01-21T01:45:42.782Z,38.67
2019-01-21T01:48:12.883Z,36.80
2019-01-21T01:50:43.313Z,38.27
2019-01-21T01:53:13.722Z,36.30
2019-01-21T01:55:43.862Z,35.73
2019-01-21T01:58:13.974Z,38.93
2019-01-21T02:00:44.102Z,36.77
2019-01-21T02:03:14.222Z,35.83
2019-01-21T02:05:44.363Z,39.03
2019-01-21T02:08:14.847Z,41.80
2019-01-21T02:10:44.942Z,40.40
2019-01-21T02:13:15.074Z,42.53
2019-01-21T02:15:45.175Z,35.70
2019-01-21T02:18:15.291Z,37.47
2019-01-21T02:20:46.525Z,42.87
2019-01-21T02:23:18.158Z,38.47
2019-01-21T02:26:09.613Z,42.90
2019-01-21T02:29:06.842Z,42.33
2019-01-21T02:32:04.648Z,43.20
2019-01-21T02:34:50.094Z,45.83
2019-01-21T02:37:52.131Z,44.30
2019-01-21T02:40:46.350Z,41.13
2019-01-21T02:43:53.727Z,46.00
2019-01-21T02:46:52.626Z,48.90
2019-01-21T02:50:00.002Z,43.90
2019-01-21T02:53:14.066Z,47.37
2019-01-21T02:56:09.575Z,52.20
2019-01-21T02:58:48.318Z,43.33
2019-01-21T03:01:43.902Z,46.93
2019-01-21T03:04:36.308Z,46.33
2019-01-21T03:07:36.062Z,45.00
2019-01-21T03:10:35.022Z,44.33
2019-01-21T03:13:34.871Z,43.90
2019-01-21T03:16:54.498Z,47.23
2019-01-21T03:20:03.794Z,42.10
2019-01-21T03:23:04.879Z,40.23
2019-01-21T03:26:13.334Z,47.07
2019-01-21T03:29:20.618Z,45.57
2019-01-21T03:32:18.375Z,43.20
2019-01-21T03:35:31.480Z,49.30
2019-01-21T03:38:45.723Z,49.50
2019-01-21T03:42:02.755Z,52.23
2019-01-21T03:45:10.275Z,52.37
2019-01-21T03:48:04.382Z,53.10
2019-01-21T03:51:23.695Z,53.23
2019-01-21T03:54:05.630Z,51.33
2019-01-21T03:56:41.689Z,49.00
2019-01-21T03:59:36.390Z,57.97
2019-01-21T04:03:01.942Z,52.20
2019-01-21T04:06:00.146Z,57.63
2019-01-21T04:09:10.459Z,54.00
2019-01-21T04:12:07.246Z,58.27
2019-01-21T04:15:29.626Z,57.10
2019-01-21T04:18:55.104Z,56.67
2019-01-21T04:21:59.144Z,54.83
2019-01-21T04:25:14.249Z,53.67
2019-01-21T04:28:14.558Z,59.27
2019-01-21T04:31:16.924Z,55.27
2019-01-21T04:34:22.494Z,64.60
2019-01-21T04:37:45.971Z,65.20
2019-01-21T04:41:12.552Z,63.50
2019-01-21T04:44:12.814Z,64.03
2019-01-21T04:47:19.512Z,64.90
2019-01-21T04:50:42.759Z,65.80
2019-01-21T04:53:53.222Z,63.37
2019-01-21T04:57:10.280Z,62.23
2019-01-21T05:00:17.847Z,63.47
2019-01-21T05:03:13.996Z,63.13
2019-01-21T05:05:59.447Z,67.37
2019-01-21T05:09:06.562Z,67.93
2019-01-21T05:12:14.880Z,66.00
2019-01-21T05:15:24.754Z,65.30
2019-01-21T05:18:18.593Z,65.17
2019-01-21T05:21:39.497Z,66.00
2019-01-21T05:25:00.701Z,66.70
2019-01-21T05:28:24.131Z,72.87
2019-01-21T05:31:56.610Z,69.83
2019-01-21T05:35:00.206Z,71.03
2019-01-21T05:38:10.724Z,80.73
2019-01-21T05:41:24.737Z,76.67
2019-01-21T05:44:32.522Z,76.47
2019-01-21T05:47:40.836Z,77.37
2019-01-21T05:51:05.499Z,80.03
2019-01-21T05:54:07.085Z,84.63
2019-01-21T05:57:14.186Z,90.77
2019-01-21T06:00:21.681Z,85.97
2019-01-21T06:03:36.189Z,83.90
2019-01-21T06:06:35.761Z,78.60
2019-01-21T06:09:56.472Z,75.47
2019-01-21T06:13:05.298Z,80.17
2019-01-21T06:15:45.207Z,70.63
2019-01-21T06:19:02.272Z,71.87
2019-01-21T06:22:31.425Z,83.43
2019-01-21T06:25:39.946Z,79.97
2019-01-21T06:28:51.466Z,81.17
2019-01-21T06:31:52.734Z,87.30
2019-01-21T06:35:00.669Z,77.73
2019-01-21T06:38:25.179Z,81.57
2019-01-21T06:41:26.566Z,84.53
2019-01-21T06:44:27.015Z,78.33
2019-01-21T06:47:59.758Z,79.90
2019-01-21T06:51:17.042Z,83.80
2019-01-21T06:54:13.046Z,81.07
2019-01-21T06:57:29.238Z,81.93
2019-01-21T07:00:30.319Z,70.50
2019-01-21T07:03:49.606Z,74.07
2019-01-21T07:07:13.174Z,69.53
2019-01-21T07:10:00.770Z,74.43
2019-01-21T07:12:59.871Z,76.50
2019-01-21T07:16:06.786Z,73.97
2019-01-21T07:19:01.127Z,76.90
2019-01-21T07:22:08.093Z,82.40
2019-01-21T07:25:21.252Z,72.90
2019-01-21T07:28:16.937Z,76.60
2019-01-21T07:31:09.426Z,83.17
2019-01-21T07:34:02.743Z,85.67
2019-01-21T07:37:23.115Z,80.97
2019-01-21T07:40:52.898Z,82.93
2019-01-21T07:43:49.099Z,83.73
2019-01-21T07:46:41.922Z,75.23
2019-01-21T07:49:53.668Z,77.03
2019-01-21T07:52:50.286Z,83.93
2019-01-21T07:55:57.062Z,82.53
2019-01-21T07:58:59.886Z,80.87
2019-01-21T08:01:38.739Z,89.50
2019-01-21T08:04:31.874Z,87.40
2019-01-21T08:07:35.811Z,84.20
2019-01-21T08:10:33.971Z,81.27
2019-01-21T08:13:29.102Z,79.50
2019-01-21T08:16:36.064Z,76.60
2019-01-21T08:19:47.579Z,69.77
2019-01-21T08:22:57.915Z,78.60
2019-01-21T08:26:11.412Z,70.27
2019-01-21T08:29:07.686Z,65.40
2019-01-21T08:31:44.794Z,67.83
2019-01-21T08:34:28.822Z,68.53
2019-01-21T08:37:30.578Z,70.83
2019-01-21T08:40:12.346Z,73.30
2019-01-21T08:43:12.230Z,64.93
2019-01-21T08:46:29.723Z,70.87
2019-01-21T08:49:11.336Z,68.40
2019-01-21T08:51:55.498Z,61.13
2019-01-21T08:54:35.847Z,63.50
2019-01-21T08:57:21.299Z,66.57
2019-01-21T09:00:30.770Z,61.87
2019-01-21T09:03:25.233Z,65.20
2019-01-21T09:06:19.978Z,61.97
2019-01-21T09:09:16.252Z,65.47
2019-01-21T09:12:03.777Z,64.37
2019-01-21T09:14:50.919Z,66.33
2019-01-21T09:17:48.561Z,64.10
2019-01-21T09:20:47.806Z,60.40
2019-01-21T09:24:00.950Z,64.23
2019-01-21T09:26:57.674Z,62.47
2019-01-21T09:30:10.218Z,60.63
2019-01-21T09:33:20.838Z,63.43
2019-01-21T09:36:19.962Z,59.30
2019-01-21T09:39:24.509Z,61.27
2019-01-21T09:42:26.482Z,62.97
2019-01-21T09:45:33.349Z,55.87
2019-01-21T09:48:02.035Z,57.90
2019-01-21T09:50:32.762Z,59.10
2019-01-21T09:53:02.902Z,56.03
2019-01-21T09:55:44.962Z,60.17
2019-01-21T09:58:15.122Z,59.17
2019-01-21T10:00:45.275Z,61.20
2019-01-21T10:03:15.662Z,57.13
2019-01-21T10:05:48.854Z,55.80
2019-01-21T10:08:47.207Z,59.90
2019-01-21T10:12:07.263Z,56.87
2019-01-21T10:15:05.686Z,59.73
2019-01-21T10:18:08.924Z,57.03
2019-01-21T10:21:02.360Z,60.47
2019-01-21T10:24:07.014Z,63.47
2019-01-21T10:26:56.462Z,63.50
2019-01-21T10:29:48.934Z,66.40
2019-01-21T10:32:43.478Z,68.23
2019-01-21T10:35:53.748Z,68.43
2019-01-21T10:39:17.035Z,66.37
2019-01-21T10:42:18.414Z,72.00
2019-01-21T10:45:07.367Z,68.80
2019-01-21T10:47:50.892Z,67.90
2019-01-21T10:51:10.666Z,65.53
2019-01-21T10:53:52.787Z,69.87
2019-01-21T10:56:48.095Z,66.73
2019-01-21T10:59:49.980Z,67.30
2019-01-21T11:02:59.955Z,70.87
2019-01-21T11:05:51.623Z,69.23
2019-01-21T11:08:54.782Z,70.97
2019-01-21T11:12:00.710Z,68.10
2019-01-21T11:15:11.151Z,73.53
2019-01-21T11:17:48.050Z,80.67
2019-01-21T11:20:51.458Z,85.20
2019-01-21T11:24:05.338Z,90.70
2019-01-21T11:27:16.328Z,85.17
2019-01-21T11:30:43.046Z,82.40
2019-01-21T11:33:33.514Z,76.13
2019-01-21T11:36:54.002Z,77.27
2019-01-21T11:40:17.414Z,76.97
2019-01-21T11:43:34.375Z,77.10
2019-01-21T11:46:46.387Z,77.23
2019-01-21T11:49:38.803Z,82.93
2019-01-21T11:52:55.710Z,79.17
2019-01-21T11:56:02.962Z,78.27
2019-01-21T11:59:10.337Z,78.27
2019-01-21T12:02:15.650Z,78.07
2019-01-21T12:05:22.895Z,72.03
2019-01-21T12:08:39.927Z,72.33
2019-01-21T12:11:22.235Z,73.93
2019-01-21T12:14:32.579Z,75.67
2019-01-21T12:17:39.698Z,70.53
2019-01-21T12:20:38.762Z,69.90
2019-01-21T12:23:33.252Z,71.60
2019-01-21T12:26:28.978Z,69.53
2019-01-21T12:29:52.474Z,75.13
2019-01-21T12:33:02.206Z,68.33
2019-01-21T12:35:55.759Z,70.93
2019-01-21T12:38:52.042Z,68.30
2019-01-21T12:41:42.186Z,71.03
2019-01-21T12:44:38.942Z,68.73
2019-01-21T12:47:49.524Z,62.80
2019-01-21T12:50:55.621Z,65.33
2019-01-21T12:53:51.294Z,70.23
2019-01-21T12:56:57.451Z,68.87
2019-01-21T12:59:47.550Z,64.97
2019-01-21T13:02:28.398Z,64.37
2019-01-21T13:05:14.559Z,71.17
2019-01-21T13:08:30.850Z,67.03
2019-01-21T13:11:13.571Z,64.80
2019-01-21T13:14:18.771Z,69.00
2019-01-21T13:17:10.349Z,66.93
2019-01-21T13:20:11.230Z,67.93
2019-01-21T13:23:15.134Z,64.97
2019-01-21T13:26:38.578Z,65.73
2019-01-21T13:29:22.891Z,64.97
2019-01-21T13:32:24.226Z,68.80
2019-01-21T13:35:50.295Z,66.57
2019-01-21T13:39:10.310Z,62.97
2019-01-21T13:42:10.080Z,67.37
2019-01-21T13:45:25.007Z,62.60
2019-01-21T13:48:15.006Z,64.63
2019-01-21T13:51:10.382Z,67.87
2019-01-21T13:54:17.580Z,61.23
2019-01-21T13:57:13.230Z,65.73
2019-01-21T14:00:20.595Z,65.23
2019-01-21T14:03:21.878Z,61.97
2019-01-21T14:06:25.518Z,62.70
2019-01-21T14:09:28.826Z,61.03
2019-01-21T14:12:15.422Z,58.70
2019-01-21T14:15:24.830Z,59.60
2019-01-21T14:18:35.138Z,59.33
2019-01-21T14:21:46.227Z,59.47
2019-01-21T14:24:27.264Z,57.83
2019-01-21T14:27:43.454Z,56.23
2019-01-21T14:31:02.274Z,53.07
2019-01-21T14:33:49.178Z,54.33
2019-01-21T14:37:00.278Z,61.87
2019-01-21T14:40:23.654Z,59.07
2019-01-21T14:43:29.192Z,59.73
2019-01-21T14:46:45.558Z,57.97
2019-01-21T14:50:05.817Z,57.70
2019-01-21T14:53:28.109Z,56.20
2019-01-21T14:56:15.433Z,56.40
2019-01-21T14:59:37.705Z,59.03
2019-01-21T15:02:41.692Z,59.03
2019-01-21T15:05:44.353Z,59.73
2019-01-21T15:08:27.716Z,63.80
2019-01-21T15:11:25.110Z,58.63
2019-01-21T15:14:18.066Z,60.63
2019-01-21T15:17:23.779Z,61.93
2019-01-21T15:20:01.822Z,61.00
2019-01-21T15:23:07.909Z,61.93
2019-01-21T15:25:53.549Z,64.53
2019-01-21T15:29:19.366Z,69.37
2019-01-21T15:32:46.146Z,64.13
2019-01-21T15:35:51.231Z,62.20
2019-01-21T15:38:46.692Z,60.10
2019-01-21T15:41:49.976Z,62.07
2019-01-21T15:44:46.127Z,63.70
2019-01-21T15:47:51.787Z,58.47
2019-01-21T15:51:05.146Z,66.20
2019-01-21T15:53:44.975Z,66.03
2019-01-21T15:56:33.549Z,59.50
2019-01-21T15:59:33.443Z,60.60
2019-01-21T16:02:31.746Z,61.40
2019-01-21T16:05:17.069Z,61.80
2019-01-21T16:07:55.148Z,65.33
2019-01-21T16:11:15.799Z,68.30
2019-01-21T16:13:59.713Z,64.40
2019-01-21T16:17:22.906Z,63.77
2019-01-21T16:20:14.341Z,65.47
2019-01-21T16:23:20.674Z,62.27
2019-01-21T16:25:58.271Z,65.10
2019-01-21T16:28:52.204Z,66.07
2019-01-21T16:31:42.308Z,64.30
2019-01-21T16:34:35.523Z,64.53
2019-01-21T16:37:47.775Z,67.03
2019-01-21T16:41:06.664Z,71.67
2019-01-21T16:43:36.788Z,68.93
2019-01-21T16:46:06.918Z,73.47
2019-01-21T16:48:37.307Z,74.90
2019-01-21T16:51:07.419Z,75.70
2019-01-21T16:53:37.531Z,73.70
2019-01-21T16:56:07.762Z,82.17
2019-01-21T16:58:37.867Z,80.80
2019-01-21T17:01:08.050Z,84.47
2019-01-21T17:03:38.462Z,77.93
2019-01-21T17:06:09.362Z,77.83
2019-01-21T17:08:39.473Z,80.13
2019-01-21T17:11:09.594Z,76.57
2019-01-21T17:13:39.738Z,82.73
2019-01-21T17:16:09.982Z,87.50
2019-01-21T17:18:40.170Z,83.37
2019-01-21T17:21:10.293Z,80.93
2019-01-21T17:23:40.418Z,83.67
2019-01-21T17:26:10.513Z,85.47
2019-01-21T17:28:40.710Z,85.13
2019-01-21T17:31:10.822Z,88.37
2019-01-21T17:33:41.034Z,96.73
2019-01-21T17:36:11.190Z,90.60
2019-01-21T17:38:41.325Z,88.97
2019-01-21T17:41:11.543Z,84.40
2019-01-21T17:43:41.660Z,91.10
2019-01-21T17:46:11.773Z,89.33
2019-01-21T17:48:41.870Z,91.67
2019-01-21T17:51:11.998Z,84.63
2019-01-21T17:53:42.446Z,84.73
2019-01-21T17:56:12.594Z,85.83
2019-01-21T17:58:43.775Z,90.90
2019-01-21T18:01:13.925Z,90.80
2019-01-21T18:03:44.026Z,90.97
2019-01-21T18:06:14.585Z,86.13
2019-01-21T18:08:44.680Z,88.70
2019-01-21T18:11:15.230Z,90.00
2019-01-21T18:13:45.346Z,86.80
2019-01-21T18:16:15.486Z,92.23
2019-01-21T18:18:45.610Z,92.47
2019-01-21T18:21:15.732Z,87.50
2019-01-21T18:23:45.848Z,87.93
2019-01-21T18:26:15.942Z,94.63
2019-01-21T18:28:46.111Z,90.60
2019-01-21T18:31:16.210Z,93.43
2019-01-21T18:33:46.410Z,95.13
2019-01-21T18:36:16.510Z,95.63
2019-01-21T18:38:46.634Z,140.00
2019-01-21T18:41:16.754Z,99.73
2019-01-21T18:43:46.915Z,106.40
2019-01-21T18:46:18.088Z,105.23
2019-01-21T18:48:48.246Z,114.00
2019-01-21T18:51:18.350Z,102.00
2019-01-21T18:53:48.486Z,99.10
2019-01-21T18:56:18.621Z,102.63
2019-01-21T18:58:48.703Z,97.43
2019-01-21T19:01:18.895Z,102.03
2019-01-21T19:03:49.027Z,97.13
2019-01-21T19:06:19.194Z,103.43
2019-01-21T19:08:49.322Z,97.13
2019-01-21T19:11:19.418Z,97.07
2019-01-21T19:13:49.558Z,99.20
2019-01-21T19:16:19.670Z,102.27
2019-01-21T19:18:49.826Z,106.87
2019-01-21T19:21:19.934Z,98.87
2019-01-21T19:23:50.147Z,97.67
2019-01-21T19:26:20.254Z,103.67
2019-01-21T19:28:50.390Z,103.40
2019-01-21T19:31:20.515Z,102.97
2019-01-21T19:33:50.647Z,104.00
2019-01-21T19:36:40.853Z,105.23
2019-01-21T19:39:22.810Z,105.70
2019-01-21T19:41:52.943Z,102.10
2019-01-21T19:44:23.050Z,103.60
2019-01-21T19:46:53.190Z,102.43
2019-01-21T19:49:23.291Z,106.87
2019-01-21T19:51:53.422Z,112.23
2019-01-21T19:54:23.526Z,103.40
2019-01-21T19:56:53.703Z,106.23
2019-01-21T19:59:23.811Z,108.20
2019-01-21T20:01:54.030Z,105.47
2019-01-21T20:04:24.134Z,107.83
2019-01-21T20:06:54.263Z,118.67
2019-01-21T20:09:24.390Z,100.90
2019-01-21T20:11:54.562Z,112.53
2019-01-21T20:14:25.775Z,102.07
2019-01-21T20:16:55.858Z,103.10
2019-01-21T20:19:25.999Z,108.37
2019-01-21T20:21:56.105Z,111.00
2019-01-21T20:24:26.279Z,112.30
2019-01-21T20:26:56.391Z,104.47
2019-01-21T20:29:26.522Z,107.97
2019-01-21T20:31:56.650Z,110.63
2019-01-21T20:34:26.795Z,107.80
2019-01-21T20:36:56.926Z,100.40
2019-01-21T20:39:27.026Z,110.20
2019-01-21T20:41:57.252Z,100.93
2019-01-21T20:44:28.450Z,114.63
2019-01-21T20:46:58.615Z,103.27
2019-01-21T20:49:28.718Z,107.97
2019-01-21T20:51:59.938Z,108.63
2019-01-21T20:54:30.043Z,102.07
2019-01-21T20:57:00.245Z,103.43
2019-01-21T20:59:30.496Z,103.53
2019-01-21T21:02:00.608Z,107.57
2019-01-21T21:04:32.091Z,105.53
2019-01-21T21:07:02.650Z,104.27
2019-01-21T21:09:34.775Z,111.20
2019-01-21T21:12:05.384Z,110.30
2019-01-21T21:14:36.532Z,102.00
2019-01-21T21:17:08.130Z,107.27
2019-01-21T21:19:38.782Z,107.10
2019-01-21T21:22:09.389Z,100.40
2019-01-21T21:24:39.979Z,98.40
2019-01-21T21:27:10.621Z,99.80
2019-01-21T21:29:41.490Z,110.37
2019-01-21T21:32:12.093Z,104.63
2019-01-21T21:34:42.734Z,107.53
2019-01-21T21:37:13.350Z,105.30
2019-01-21T21:39:44.022Z,106.80
2019-01-21T21:42:14.867Z,103.03
2019-01-21T21:44:45.594Z,105.33
2019-01-21T21:47:16.198Z,103.13
2019-01-21T21:49:47.965Z,102.53
2019-01-21T21:52:18.578Z,99.53
2019-01-21T21:54:49.217Z,107.00
2019-01-21T21:57:38.934Z,107.20
2019-01-21T22:00:13.818Z,108.07
2019-01-21T22:02:44.527Z,102.17
2019-01-21T22:05:15.267Z,102.63
2019-01-21T22:07:45.882Z,109.13
2019-01-21T22:10:19.882Z,109.07
2019-01-21T22:12:51.552Z,106.97
2019-01-21T22:15:23.076Z,112.77
2019-01-21T22:17:53.686Z,103.97
2019-01-21T22:20:25.514Z,109.37
2019-01-21T22:22:57.119Z,105.60
2019-01-21T22:25:27.421Z,110.70
2019-01-21T22:27:57.550Z,109.03
2019-01-21T22:30:28.498Z,110.67
2019-01-21T22:32:58.702Z,107.67
2019-01-21T22:35:28.830Z,110.77
2019-01-21T22:37:59.064Z,109.43
2019-01-21T22:40:29.174Z,111.27
2019-01-21T22:42:59.302Z,114.60
2019-01-21T22:45:29.426Z,111.50
2019-01-21T22:47:59.845Z,111.70
2019-01-21T22:50:30.294Z,106.20
2019-01-21T22:53:00.398Z,107.57
2019-01-21T22:55:49.628Z,116.63
2019-01-21T22:58:19.730Z,118.60
2019-01-21T23:01:15.632Z,125.13
2019-01-21T23:03:45.766Z,115.43
2019-01-21T23:06:16.102Z,114.93
2019-01-21T23:08:46.230Z,114.70
2019-01-21T23:11:16.459Z,119.00
2019-01-21T23:13:46.581Z,124.47
2019-01-21T23:16:17.138Z,118.93
2019-01-21T23:18:47.238Z,119.97
2019-01-21T23:21:17.379Z,111.17
2019-01-21T23:23:48.474Z,116.03
2019-01-21T23:26:18.583Z,115.70
2019-01-21T23:28:49.027Z,124.33
2019-01-21T23:31:19.126Z,118.23
2019-01-21T23:33:49.235Z,121.33
2019-01-21T23:36:19.478Z,119.13
2019-01-21T23:38:49.590Z,118.13
2019-01-21T23:41:20.123Z,121.30
2019-01-21T23:43:50.237Z,118.37
2019-01-21T23:46:20.370Z,120.13
2019-01-21T23:48:50.470Z,114.37
2019-01-21T23:51:20.605Z,120.87
2019-01-21T23:53:51.302Z,121.13
2019-01-21T23:56:21.452Z,125.73
2019-01-21T23:58:51.555Z,124.43
